Station: Hindmarsh Island  

  Atmospheric Gas Attenuation - ITU Rec 676-11   ----------------- dB/100km -----------------
Date Time Temp RH % AH g/m3 Dew Point Wind Direction Speed kph Gust kph Barometer mB Rainfall Since 9am 24GHz 47GHz 76GHz 122GHz 134GHz 241GHz
08/05 11:00 16 80 10.9 12.6 35 43 1030.6 0 24.4 29.7 48.9 128.6 128.1 442.5
08/05 10:50 15.6 80 10.64 12.2 39 43 1030.6 0 23.8 29.4 48.1 126.3 125.1 432.0
08/05 10:40 15.4 79 10.38 11.8 35 41 1030.7 0 23.3 29.0 47.1 123.6 121.8 420.4
08/05 10:30 15.6 81 10.77 12.4 35 43 1030.6 0 24.1 29.6 48.6 127.7 126.9 438.4
08/05 10:20 15.1 87 11.22 13 37 41 1030.5 0 25.1 30.6 50.9 133.8 134.2 463.6
08/05 10:10 14.5 89 11.07 12.7 30 32 1030.7 0 24.8 30.5 50.6 133.1 133.1 459.7
08/05 10:00 15 89 11.41 13.2 33 41 1030.6 0 25.5 31.0 51.8 136.2 137.1 473.8
08/05 09:50 14.9 91 11.6 13.4 33 37 1030.5 0 25.9 31.3 52.7 138.6 140.0 484.0
08/05 09:40 14.9 87 11.09 12.8 37 43 1030.4 0 24.8 30.4 50.4 132.6 132.7 458.2
08/05 09:30 15.2 87 11.29 13.1 33 41 1030.5 0 25.2 30.7 51.1 134.4 135.0 466.5
08/05 09:20 14.7 89 11.21 12.9 32 32 1030.5 0 25.1 30.7 51.1 134.3 134.7 465.5
08/05 09:10 14.9 91 11.6 13.4 32 35 1030.4 0 25.9 31.3 52.7 138.6 140.0 484.0
08/05 09:00 14.4 92 11.37 13.1 30 41 1030.4 0 25.5 31.1 52.0 136.7 137.6 475.4
08/05 08:50 14.1 91 11.04 12.7 33 37 1030.3 0.4 24.8 30.6 50.7 133.4 133.3 460.4
08/05 08:40 14.4 91 11.25 13 28 32 1030.3 0.4 25.2 30.9 51.5 135.3 135.8 469.3
08/05 08:30 14.2 90 10.99 12.6 33 41 1030.3 0.2 24.7 30.5 50.4 132.6 132.4 457.3
08/05 08:20 14.3 92 11.3 13 26 30 1030.2 0.2 25.3 31.0 51.7 136.1 136.7 472.4
08/05 08:10 14.1 91 11.04 12.7 26 28 1030.1 0.2 24.8 30.6 50.7 133.3 133.3 460.4
08/05 08:00 14.1 90 10.92 12.5 30 39 1030.1 0.2 24.5 30.4 50.2 131.9 131.6 454.3
08/05 07:50 14.2 87 10.62 12.1 26 32 1030 0 23.9 29.8 48.8 128.3 127.1 438.7
08/05 07:40 14.6 82 10.26 11.6 33 39 1029.7 0 23.1 29.0 47.0 123.4 121.3 418.6
08/05 07:30 14.8 79 10.01 11.2 32 46 1029.5 0 22.5 28.5 45.8 120.3 117.5 405.3
08/05 07:20 14.6 82 10.26 11.6 35 37 1029.5 0 23.1 29.0 47.0 123.4 121.3 418.5
08/05 07:10 15 79 10.13 11.4 37 41 1029.3 0 22.8 28.7 46.2 121.3 118.8 410.0
08/05 07:00 15.2 75 9.73 10.8 35 44 1029.1 0 21.9 27.9 44.4 116.5 113.0 389.7
08/05 06:50 15.2 74 9.6 10.6 33 37 1029.2 0 21.6 27.7 43.9 115.1 111.3 383.5
08/05 06:40 15 77 9.87 11 28 33 1029.1 0 22.2 28.2 45.1 118.4 115.2 397.4
08/05 06:30 14.8 79 10.01 11.2 33 46 1029 0 22.5 28.5 45.8 120.2 117.5 405.1
08/05 06:20 15.1 75 9.68 10.7 32 39 1029 0 21.8 27.9 44.2 116.1 112.5 387.8
08/05 06:10 15 72 9.23 10 28 32 1028.9 0 20.9 27.2 42.4 111.3 106.5 366.9
08/05 06:00 14.9 73 9.3 10.1 30 39 1028.8 0 21.0 27.3 42.8 112.2 107.6 370.6
08/05 05:50 15 71 9.1 9.8 32 37 1028.8 0 20.6 26.9 41.9 109.9 104.8 360.8
08/05 05:40 15.1 72 9.29 10.1 35 43 1028.7 0 21.0 27.2 42.6 111.8 107.2 369.2
08/05 05:30 15 73 9.36 10.2 32 43 1028.8 0 21.1 27.4 43.0 112.7 108.3 373.0
08/05 05:20 15.1 71 9.16 9.9 35 39 1028.9 0 20.7 27.0 42.1 110.4 105.4 363.2
08/05 05:10 14.9 73 9.3 10.1 35 41 1028.8 0 21.0 27.3 42.8 112.2 107.6 370.6
08/05 05:00 15 73 9.36 10.2 32 41 1028.9 0 21.1 27.4 43.0 112.7 108.3 373.0
08/05 04:50 14.9 75 9.56 10.5 35 39 1028.9 0 21.6 27.7 43.8 115.0 111.1 383.0
08/05 04:40 15.1 75 9.68 10.7 33 37 1028.8 0 21.8 27.9 44.2 116.1 112.5 387.7
08/05 04:30 14.9 76 9.69 10.7 26 32 1028.8 0 21.8 27.9 44.4 116.5 112.9 389.2
08/05 04:20 14.8 76 9.63 10.6 28 32 1028.8 0 21.7 27.9 44.2 116.0 112.2 386.8
08/05 04:10 15 75 9.62 10.6 26 30 1028.8 0 21.7 27.8 44.0 115.6 111.8 385.3
08/05 04:00 15 70 8.98 9.6 32 41 1028.9 0 20.3 26.7 41.4 108.6 103.2 355.2
08/05 03:50 15 66 8.46 8.7 35 39 1028.9 0 19.2 25.9 39.3 103.0 96.3 331.2
08/05 03:40 14.9 70 8.92 9.5 37 43 1028.8 0 20.2 26.7 41.2 108.0 102.5 352.8
08/05 03:30 15.1 68 8.77 9.2 35 46 1028.8 0 19.9 26.4 40.5 106.2 100.3 345.0
08/05 03:20 15.1 72 9.29 10.1 32 37 1028.9 0 21.0 27.2 42.6 111.8 107.2 369.3
08/05 03:10 15.1 71 9.16 9.9 33 39 1028.8 0 20.7 27.0 42.1 110.4 105.4 363.1
08/05 03:00 15 72 9.23 10 33 43 1029 0 20.9 27.2 42.4 111.3 106.5 366.9
08/05 02:50 15.1 72 9.29 10.1 35 39 1029 0 21.0 27.2 42.6 111.8 107.2 369.3
08/05 02:40 15 73 9.36 10.2 32 33 1029 0 21.1 27.4 43.0 112.7 108.3 373.1
08/05 02:30 15.1 70 9.03 9.7 33 43 1028.9 0 20.4 26.8 41.6 109.0 103.7 357.1
08/05 02:20 14.9 72 9.18 9.9 35 41 1028.9 0 20.8 27.1 42.3 110.9 106.0 365.0
08/05 02:10 14.7 74 9.32 10.1 39 44 1029.1 0 21.1 27.4 43.0 112.7 108.2 372.6
08/05 02:00 14.9 74 9.43 10.3 33 48 1029.1 0 21.3 27.5 43.3 113.6 109.4 376.9
08/05 01:50 14.9 70 8.92 9.5 33 39 1029.1 0 20.2 26.7 41.2 108.1 102.5 352.9
08/05 01:40 14.8 70 8.87 9.4 32 33 1029.3 0 20.1 26.6 41.1 107.7 102.0 351.1
08/05 01:30 14.9 69 8.79 9.3 35 46 1029.2 0 19.9 26.5 40.7 106.7 100.8 346.9
08/05 01:20 14.9 70 8.92 9.5 39 41 1029.3 0 20.2 26.7 41.2 108.1 102.5 353.0
08/05 01:10 15.1 67 8.64 9 37 43 1029.4 0 19.6 26.2 40.0 104.8 98.6 339.2
08/05 01:00 14.9 69 8.79 9.3 32 39 1029.5 0 19.9 26.5 40.7 106.7 100.8 347.0
08/05 00:50 14.8 72 9.12 9.8 32 35 1029.4 0 20.6 27.1 42.1 110.4 105.4 362.8
08/05 00:40 14.8 71 8.99 9.6 37 41 1029.4 0 20.4 26.8 41.6 109.0 103.6 356.7
08/05 00:30 15 67 8.59 8.9 35 43 1029.4 0 19.5 26.1 39.9 104.4 98.1 337.3
08/05 00:20 14.4 77 9.52 10.4 28 33 1029.5 0 21.5 27.8 44.0 115.4 111.4 383.7
08/05 00:10 14.1 79 9.59 10.5 35 39 1029.5 0 21.7 28.1 44.4 116.6 112.8 388.6
08/05 00:00 14.6 76 9.51 10.4 39 46 1029.6 0 21.5 27.8 43.8 115.0 110.9 382.3
07/05 23:50 14.7 72 9.07 9.7 37 41 1029.5 0 20.5 27.0 42.0 110.0 104.8 361.0
07/05 23:40 15.1 69 8.9 9.5 32 43 1029.6 0 20.1 26.6 41.1 107.6 102.0 351.2
07/05 23:30 15.1 64 8.26 8.3 37 46 1029.6 0 18.8 25.6 38.5 100.8 93.7 321.9
07/05 23:20 15 66 8.46 8.7 37 46 1029.6 0 19.2 25.9 39.4 103.1 96.4 331.4
07/05 23:10 15.1 65 8.39 8.6 35 37 1029.7 0 19.1 25.8 39.0 102.2 95.4 327.8
07/05 23:00 14.9 66 8.41 8.6 35 46 1029.6 0 19.1 25.9 39.2 102.7 95.9 329.5
07/05 22:50 14.8 66 8.36 8.5 35 41 1029.6 0 19.0 25.8 39.1 102.3 95.3 327.7
07/05 22:40 14.8 66 8.36 8.5 37 41 1029.7 0 19.0 25.8 39.1 102.3 95.3 327.7
07/05 22:30 14.8 62 7.85 7.6 41 50 1029.7 0 17.9 25.0 37.1 96.9 88.7 304.6
07/05 22:20 14.8 63 7.98 7.8 41 48 1029.6 0 18.2 25.2 37.6 98.3 90.4 310.4
07/05 22:10 14.7 68 8.56 8.9 28 32 1029.8 0 19.4 26.2 39.9 104.6 98.1 337.3
07/05 22:00 14.6 69 8.63 9 30 39 1029.9 0 19.6 26.3 40.3 105.4 99.1 341.0
07/05 21:50 14.5 70 8.71 9.1 30 35 1029.8 0 19.8 26.5 40.6 106.4 100.3 345.1
07/05 21:40 14.6 70 8.76 9.2 26 30 1029.9 0 19.9 26.5 40.8 106.8 100.9 347.0
07/05 21:30 14.5 67 8.33 8.5 32 41 1029.8 0 19.0 25.9 39.1 102.4 95.3 327.6
07/05 21:20 14.5 65 8.08 8 28 35 1029.8 0 18.4 25.5 38.1 99.7 92.0 316.2
07/05 21:10 14.6 65 8.13 8.1 28 32 1029.9 0 18.5 25.5 38.3 100.1 92.6 318.1
07/05 21:00 14.3 63 7.74 7.4 32 39 1029.9 0 17.7 25.0 36.9 96.4 87.9 301.6
07/05 20:50 14.1 64 7.77 7.4 32 37 1030 0 17.8 25.1 37.1 97.0 88.5 303.7
07/05 20:40 14.4 64 7.91 7.7 35 39 1029.9 0 18.1 25.2 37.5 98.1 90.0 308.9
07/05 20:30 14.1 66 8.01 7.9 33 44 1029.9 0 18.3 25.5 38.0 99.5 91.6 314.6
07/05 20:20 13.6 78 9.18 9.8 26 28 1030 0 20.8 27.5 43.0 112.8 107.9 371.5
07/05 20:10 13.4 80 9.3 10 19 20 1030.1 0 21.1 27.8 43.7 114.5 109.8 378.2
07/05 20:00 13.3 80 9.24 9.9 20 28 1030 0 21.0 27.7 43.5 114.0 109.1 375.8
07/05 19:50 13.1 82 9.36 10.1 19 20 1030.1 0 21.2 28.0 44.1 115.6 111.1 382.6
07/05 19:40 12.9 84 9.47 10.3 22 26 1030.2 0 21.5 28.3 44.7 117.2 112.9 388.9
07/05 19:30 12.9 83 9.36 10.1 30 44 1030.3 0 21.2 28.1 44.2 115.9 111.4 383.6
07/05 19:20 13.8 75 8.94 9.5 33 41 1030.3 0 20.3 27.1 42.0 109.9 104.4 359.2
07/05 19:10 13.8 72 8.58 8.8 35 41 1030.1 0 19.5 26.5 40.5 106.0 99.5 342.2
07/05 19:00 13.6 73 8.59 8.9 33 43 1030.1 0 19.6 26.6 40.6 106.4 99.9 343.5
07/05 18:50 14.5 65 8.08 8 33 39 1030.1 0 18.4 25.5 38.1 99.8 92.1 316.2
07/05 18:40 14.6 61 7.63 7.2 26 32 1030.1 0 17.5 24.8 36.3 94.9 86.2 295.6
07/05 18:30 14.6 59 7.38 6.7 32 39 1029.9 0 16.9 24.4 35.4 92.3 83.0 284.4

Last Refresh: 08-May-2026 11:02:41

Bureau of Meteorology